createdAt,value
2022-11-16T00:01:15.188Z,67.20
2022-11-16T00:03:45.075Z,47.63
2022-11-16T00:06:16.105Z,46.60
2022-11-16T00:09:08.873Z,55.28
2022-11-16T00:11:39.016Z,52.75
2022-11-16T00:14:09.260Z,58.58
2022-11-16T00:19:32.510Z,46.38
2022-11-16T00:22:02.376Z,56.30
2022-11-16T00:24:33.405Z,54.95
2022-11-16T00:27:05.425Z,53.08
2022-11-16T00:29:35.803Z,63.30
2022-11-16T00:32:04.895Z,48.97
2022-11-16T00:34:33.852Z,43.15
2022-11-16T00:37:03.086Z,41.85
2022-11-16T00:42:24.854Z,51.80
2022-11-16T00:44:59.687Z,43.00
2022-11-16T00:47:28.698Z,36.53
2022-11-16T00:49:57.506Z,49.53
2022-11-16T00:52:26.340Z,41.08
2022-11-16T00:54:55.866Z,47.17
2022-11-16T00:57:25.986Z,62.28
2022-11-16T01:00:00.528Z,42.63
2022-11-16T01:02:29.740Z,52.45
2022-11-16T01:04:59.338Z,45.78
2022-11-16T01:07:31.757Z,50.30
2022-11-16T01:10:00.869Z,44.03
2022-11-16T01:12:29.787Z,47.53
2022-11-16T01:15:00.207Z,52.85
2022-11-16T01:17:32.454Z,54.80
2022-11-16T01:20:01.328Z,52.28
2022-11-16T01:22:34.416Z,42.53
2022-11-16T01:25:10.957Z,39.85
2022-11-16T01:27:40.523Z,48.05
2022-11-16T01:30:17.734Z,57.35
2022-11-16T01:32:57.673Z,52.72
2022-11-16T01:35:26.663Z,43.65
2022-11-16T01:37:56.629Z,42.80
2022-11-16T01:40:28.612Z,50.10
2022-11-16T01:42:57.839Z,40.08
2022-11-16T01:45:39.043Z,40.88
2022-11-16T01:48:12.716Z,34.47
2022-11-16T01:50:42.675Z,46.15
2022-11-16T01:53:14.725Z,48.10
2022-11-16T01:55:54.667Z,39.10
2022-11-16T01:58:32.646Z,43.38
2022-11-16T02:01:24.809Z,47.78
2022-11-16T02:03:57.550Z,55.38
2022-11-16T02:06:59.287Z,43.67
2022-11-16T02:10:04.312Z,42.92
2022-11-16T02:13:04.076Z,41.13
2022-11-16T02:15:49.244Z,32.90
2022-11-16T02:18:36.877Z,37.78
2022-11-16T02:21:25.880Z,40.70
2022-11-16T02:24:31.725Z,37.70
2022-11-16T02:27:45.451Z,43.17
2022-11-16T02:30:16.966Z,38.13
2022-11-16T02:32:53.727Z,46.97
2022-11-16T02:35:32.358Z,44.15
2022-11-16T02:38:10.948Z,37.70
2022-11-16T02:40:47.637Z,47.42
2022-11-16T02:43:32.133Z,50.75
2022-11-16T02:46:09.284Z,51.78
2022-11-16T02:48:45.584Z,44.65
2022-11-16T02:51:16.093Z,53.00
2022-11-16T02:54:03.906Z,47.13
2022-11-16T02:56:50.138Z,69.60
2022-11-16T02:59:22.526Z,64.78
2022-11-16T03:02:03.657Z,59.17
2022-11-16T03:04:42.059Z,45.90
2022-11-16T03:07:17.710Z,51.45
2022-11-16T03:09:51.481Z,46.75
2022-11-16T03:12:25.220Z,45.72
2022-11-16T03:14:58.830Z,49.67
2022-11-16T03:17:33.133Z,45.00
2022-11-16T03:20:11.035Z,49.78
2022-11-16T03:22:45.445Z,51.17
2022-11-16T03:25:19.753Z,59.20
2022-11-16T03:28:02.613Z,47.30
2022-11-16T03:30:39.633Z,52.55
2022-11-16T03:33:19.806Z,47.72
2022-11-16T03:36:00.859Z,49.80
2022-11-16T03:38:34.861Z,47.13
2022-11-16T03:41:09.712Z,48.65
2022-11-16T03:43:42.229Z,69.78
2022-11-16T03:46:12.336Z,49.30
2022-11-16T03:48:43.972Z,52.42
2022-11-16T03:51:21.420Z,47.22
2022-11-16T03:53:50.655Z,48.50
2022-11-16T03:56:20.584Z,58.58
2022-11-16T03:58:49.811Z,50.92
2022-11-16T04:01:20.172Z,47.40
2022-11-16T04:03:51.894Z,45.42
2022-11-16T04:06:39.137Z,67.03
2022-11-16T04:09:24.749Z,54.08
2022-11-16T04:12:11.360Z,59.10
2022-11-16T04:14:58.707Z,60.50
2022-11-16T04:17:48.008Z,58.47
2022-11-16T04:20:49.682Z,61.83
2022-11-16T04:23:37.845Z,56.40
2022-11-16T04:26:09.582Z,54.53
2022-11-16T04:28:38.881Z,54.58
2022-11-16T04:31:25.623Z,67.13
2022-11-16T04:34:34.690Z,53.10
2022-11-16T04:37:24.393Z,62.50
2022-11-16T04:39:53.430Z,59.35
2022-11-16T04:42:23.329Z,60.90
2022-11-16T04:45:11.369Z,67.43
2022-11-16T04:47:50.980Z,72.72
2022-11-16T04:50:21.785Z,78.00
2022-11-16T04:52:53.460Z,72.85
2022-11-16T04:55:22.702Z,92.30
2022-11-16T04:57:53.123Z,73.15
2022-11-16T05:00:24.133Z,76.28
2022-11-16T05:02:58.196Z,65.53
2022-11-16T05:05:30.545Z,60.10
2022-11-16T05:08:02.644Z,60.40
2022-11-16T05:10:34.003Z,67.50
2022-11-16T05:13:03.460Z,60.58
2022-11-16T05:15:32.763Z,56.45
2022-11-16T05:18:02.634Z,73.35
2022-11-16T05:20:50.096Z,79.53
2022-11-16T05:23:38.642Z,62.55
2022-11-16T05:26:12.907Z,68.80
2022-11-16T05:28:42.082Z,81.35
2022-11-16T05:31:13.628Z,80.32
2022-11-16T05:33:42.856Z,77.00
2022-11-16T05:36:13.253Z,74.18
2022-11-16T05:38:43.726Z,90.00
2022-11-16T05:41:13.052Z,68.25
2022-11-16T05:43:42.328Z,84.88
2022-11-16T05:46:19.502Z,81.32
2022-11-16T05:48:48.886Z,66.70
2022-11-16T05:51:18.653Z,77.00
2022-11-16T05:53:49.807Z,58.50
2022-11-16T05:56:23.371Z,78.93
2022-11-16T05:58:54.886Z,65.32
2022-11-16T06:01:24.356Z,65.13
2022-11-16T06:03:53.557Z,86.13
2022-11-16T06:06:22.947Z,75.30
2022-11-16T06:08:54.674Z,70.88
2022-11-16T06:11:32.733Z,75.57
2022-11-16T06:14:05.079Z,61.88
2022-11-16T06:16:35.657Z,88.97
2022-11-16T06:19:08.651Z,71.78
2022-11-16T06:21:38.526Z,73.78
2022-11-16T06:24:14.171Z,79.78
2022-11-16T06:26:46.104Z,70.55
2022-11-16T06:29:15.956Z,82.88
2022-11-16T06:31:44.983Z,78.63
2022-11-16T06:34:14.877Z,65.80
2022-11-16T06:56:00.043Z,75.22
2022-11-16T06:58:33.231Z,59.75
2022-11-16T07:01:08.355Z,72.93
2022-11-16T07:03:39.961Z,69.68
2022-11-16T07:06:12.162Z,80.00
2022-11-16T07:08:43.300Z,73.80
2022-11-16T07:11:14.094Z,69.85
2022-11-16T07:13:44.616Z,67.57
2022-11-16T07:16:14.243Z,89.20
2022-11-16T07:18:48.891Z,66.40
2022-11-16T07:21:18.896Z,76.78
2022-11-16T07:23:48.045Z,70.47
2022-11-16T07:26:21.706Z,60.85
2022-11-16T07:28:59.051Z,74.30
2022-11-16T07:31:29.301Z,71.38
2022-11-16T07:34:16.951Z,61.35
2022-11-16T07:37:48.907Z,79.85
2022-11-16T07:40:39.681Z,62.90
2022-11-16T07:43:17.220Z,89.32
2022-11-16T07:49:00.379Z,72.35
2022-11-16T07:51:48.668Z,73.63
2022-11-16T07:54:36.540Z,87.38
2022-11-16T07:57:06.341Z,73.30
2022-11-16T07:59:35.755Z,72.22
2022-11-16T08:02:08.104Z,79.93
2022-11-16T08:04:38.773Z,69.28
2022-11-16T08:07:08.744Z,70.97
2022-11-16T08:09:45.038Z,72.38
2022-11-16T08:12:17.059Z,82.95
2022-11-16T08:14:46.135Z,75.38
2022-11-16T08:17:17.666Z,57.92
2022-11-16T08:20:38.783Z,66.10
2022-11-16T08:23:08.333Z,69.60
2022-11-16T08:25:39.122Z,52.47
2022-11-16T08:28:08.216Z,62.83
2022-11-16T08:30:39.717Z,61.72
2022-11-16T08:33:11.405Z,77.95
2022-11-16T08:35:40.548Z,76.70
2022-11-16T08:38:09.672Z,67.85
2022-11-16T08:40:38.969Z,57.58
2022-11-16T08:43:08.114Z,58.78
2022-11-16T08:45:37.259Z,55.47
2022-11-16T08:48:07.593Z,48.15
2022-11-16T08:51:09.878Z,63.83
2022-11-16T08:53:29.031Z,54.10
2022-11-16T08:56:03.495Z,53.90
2022-11-16T08:58:33.552Z,70.72
2022-11-16T09:01:10.248Z,61.05
2022-11-16T09:03:39.846Z,51.67
2022-11-16T09:06:12.033Z,64.78
2022-11-16T09:08:43.097Z,51.60
2022-11-16T09:11:13.682Z,49.85
2022-11-16T09:13:43.033Z,51.42
2022-11-16T09:24:15.144Z,52.20
2022-11-16T09:26:44.765Z,43.30
2022-11-16T09:29:15.303Z,48.25
2022-11-16T09:31:45.393Z,32.65
2022-11-16T09:34:14.534Z,33.10
2022-11-16T09:36:43.556Z,26.65
2022-11-16T09:39:30.158Z,29.52
2022-11-16T09:42:25.852Z,42.92
2022-11-16T09:45:04.742Z,31.75
2022-11-16T09:47:45.908Z,34.05
2022-11-16T09:50:35.810Z,27.88
2022-11-16T09:53:20.486Z,39.05
2022-11-16T09:55:53.227Z,33.72
2022-11-16T09:58:28.208Z,28.58
2022-11-16T10:01:07.709Z,33.72
2022-11-16T10:03:44.527Z,34.75
2022-11-16T10:06:22.098Z,30.73
2022-11-16T10:08:53.307Z,46.63
2022-11-16T10:11:48.816Z,35.55
2022-11-16T10:14:53.303Z,38.53
2022-11-16T10:17:33.926Z,34.83
2022-11-16T10:20:19.722Z,31.95
2022-11-16T10:22:59.424Z,34.90
2022-11-16T10:25:36.169Z,31.95
2022-11-16T10:28:31.577Z,39.58
2022-11-16T10:31:10.750Z,35.10
2022-11-16T10:33:42.365Z,30.08
2022-11-16T10:36:16.245Z,33.38
2022-11-16T10:38:46.554Z,34.15
2022-11-16T10:41:22.713Z,36.55
2022-11-16T10:43:53.251Z,33.25
2022-11-16T10:46:27.589Z,31.10
2022-11-16T10:49:06.375Z,33.90
2022-11-16T10:51:35.954Z,43.03
2022-11-16T10:54:13.152Z,32.25
2022-11-16T10:56:45.483Z,40.78
2022-11-16T10:59:17.332Z,43.83
2022-11-16T11:01:51.111Z,43.97
2022-11-16T11:04:25.190Z,46.63
2022-11-16T11:06:56.479Z,43.70
2022-11-16T11:09:29.162Z,37.70
2022-11-16T11:12:21.711Z,47.20
2022-11-16T11:15:07.108Z,42.63
2022-11-16T11:17:38.602Z,31.90
2022-11-16T11:20:21.062Z,34.75
2022-11-16T11:22:54.365Z,37.75
2022-11-16T11:25:27.329Z,47.95
2022-11-16T11:28:09.330Z,40.40
2022-11-16T11:30:41.684Z,40.50
2022-11-16T11:33:12.886Z,41.15
2022-11-16T11:36:32.072Z,35.75
2022-11-16T11:42:07.303Z,45.53
2022-11-16T11:45:01.085Z,37.50
2022-11-16T11:47:58.122Z,48.25
2022-11-16T11:54:23.715Z,35.53
2022-11-16T11:56:53.243Z,43.13
2022-11-16T11:59:26.651Z,42.58
2022-11-16T12:02:12.215Z,49.05
2022-11-16T12:05:16.108Z,38.78
2022-11-16T12:08:00.719Z,47.13
2022-11-16T12:10:42.571Z,35.60
2022-11-16T12:13:40.175Z,41.83
2022-11-16T12:16:17.777Z,29.85
2022-11-16T12:19:02.791Z,43.47
2022-11-16T12:21:45.987Z,38.08
2022-11-16T12:24:34.168Z,37.33
2022-11-16T12:27:14.781Z,34.70
2022-11-16T12:29:54.768Z,35.88
2022-11-16T12:32:45.594Z,42.20
2022-11-16T12:35:32.856Z,33.58
2022-11-16T12:38:14.086Z,27.20
2022-11-16T12:40:57.351Z,26.80
2022-11-16T12:43:37.622Z,32.15
2022-11-16T12:46:18.228Z,36.83
2022-11-16T12:49:13.608Z,41.08
2022-11-16T12:52:02.242Z,41.05
2022-11-16T12:58:18.227Z,26.45
2022-11-16T13:01:03.801Z,32.80
2022-11-16T13:03:42.780Z,30.05
2022-11-16T13:06:16.686Z,29.73
2022-11-16T13:09:07.116Z,35.05
2022-11-16T13:11:41.173Z,27.42
2022-11-16T13:14:18.480Z,21.17
2022-11-16T13:16:48.700Z,32.58
2022-11-16T13:19:18.458Z,33.25
2022-11-16T13:21:56.668Z,30.25
2022-11-16T13:24:39.155Z,26.17
2022-11-16T13:27:24.817Z,34.63
2022-11-16T13:29:58.882Z,24.38
2022-11-16T13:32:39.640Z,25.67
2022-11-16T13:35:15.330Z,23.73
2022-11-16T13:37:46.929Z,21.63
2022-11-16T13:40:25.656Z,20.52
2022-11-16T13:43:06.783Z,22.98
2022-11-16T13:46:06.887Z,20.73
2022-11-16T13:49:20.764Z,24.08
2022-11-16T13:52:23.715Z,22.23
2022-11-16T13:55:13.310Z,21.85
2022-11-16T13:57:55.614Z,23.77
2022-11-16T14:00:30.825Z,20.17
2022-11-16T14:03:32.983Z,21.55
2022-11-16T14:06:04.504Z,25.15
2022-11-16T14:09:06.895Z,22.73
2022-11-16T14:11:40.428Z,28.17
2022-11-16T14:14:15.777Z,20.00
2022-11-16T14:17:36.817Z,24.55
2022-11-16T14:20:22.178Z,23.23
2022-11-16T14:23:07.074Z,30.10
2022-11-16T14:25:44.045Z,24.48
2022-11-16T14:28:50.449Z,30.83
2022-11-16T14:31:30.489Z,28.58
2022-11-16T14:34:02.651Z,20.85
2022-11-16T14:36:42.179Z,29.92
2022-11-16T14:39:28.681Z,19.67
2022-11-16T14:42:01.766Z,19.92
2022-11-16T14:44:37.491Z,18.90
2022-11-16T14:47:27.586Z,21.38
2022-11-16T14:50:00.313Z,25.88
2022-11-16T14:52:53.189Z,26.67
2022-11-16T14:55:46.409Z,21.85
2022-11-16T14:58:21.264Z,21.13
2022-11-16T15:00:57.328Z,18.23
2022-11-16T15:03:29.744Z,21.83
2022-11-16T15:06:02.451Z,22.17
2022-11-16T15:08:42.600Z,23.98
2022-11-16T15:11:24.418Z,22.42
2022-11-16T15:14:11.516Z,24.08
2022-11-16T15:17:08.343Z,17.10
2022-11-16T15:20:30.900Z,17.25
2022-11-16T15:36:41.101Z,18.48
2022-11-16T15:39:15.836Z,14.38
2022-11-16T15:41:46.102Z,19.92
2022-11-16T15:44:19.748Z,11.90
2022-11-16T15:46:56.208Z,19.95
2022-11-16T15:49:38.627Z,16.58
2022-11-16T15:52:24.637Z,15.32
2022-11-16T15:55:07.523Z,13.65
2022-11-16T15:57:37.429Z,17.55
2022-11-16T16:00:22.917Z,16.65
2022-11-16T16:02:53.680Z,17.75
2022-11-16T16:05:34.006Z,13.68
2022-11-16T16:08:03.959Z,17.95
2022-11-16T16:10:35.778Z,16.23
2022-11-16T16:13:19.894Z,16.95
2022-11-16T16:16:10.701Z,18.45
2022-11-16T16:18:44.741Z,21.30
2022-11-16T16:21:15.335Z,19.30
2022-11-16T16:23:48.975Z,16.08
2022-11-16T16:26:23.211Z,17.08
2022-11-16T16:28:53.461Z,16.88
2022-11-16T16:31:27.783Z,15.85
2022-11-16T16:33:57.324Z,18.02
2022-11-16T16:36:27.037Z,19.25
2022-11-16T16:38:59.057Z,18.50
2022-11-16T16:41:31.947Z,25.25
2022-11-16T16:44:05.652Z,18.85
2022-11-16T16:46:44.423Z,19.13
2022-11-16T16:49:16.127Z,35.90
2022-11-16T16:51:45.775Z,20.25
2022-11-16T16:54:19.212Z,22.73
2022-11-16T16:56:48.619Z,17.02
2022-11-16T16:59:26.788Z,16.92
2022-11-16T17:02:38.276Z,14.43
2022-11-16T17:05:08.653Z,16.60
2022-11-16T17:07:39.349Z,31.40
2022-11-16T17:10:09.770Z,19.73
2022-11-16T17:12:42.256Z,16.48
2022-11-16T17:15:21.636Z,19.15
2022-11-16T17:17:59.268Z,21.52
2022-11-16T17:20:28.916Z,17.60
2022-11-16T17:23:16.190Z,16.20
2022-11-16T17:25:46.237Z,15.18
2022-11-16T17:28:17.108Z,18.73
2022-11-16T17:33:36.141Z,28.50
2022-11-16T17:36:08.198Z,12.63
2022-11-16T17:38:38.556Z,16.73
2022-11-16T17:41:10.111Z,13.77
2022-11-16T17:43:39.356Z,12.25
2022-11-16T17:46:13.482Z,13.90
2022-11-16T17:48:47.631Z,14.93
2022-11-16T17:51:20.837Z,11.40
2022-11-16T17:54:14.875Z,11.32
2022-11-16T17:56:52.233Z,12.40
2022-11-16T17:59:29.808Z,13.07
2022-11-16T18:02:31.178Z,23.50
2022-11-16T18:05:08.471Z,13.27
2022-11-16T18:07:38.862Z,13.52
2022-11-16T18:10:12.689Z,11.35
2022-11-16T18:12:44.340Z,16.02
2022-11-16T18:15:28.585Z,11.23
2022-11-16T18:17:59.920Z,11.18
2022-11-16T18:20:55.380Z,10.10
2022-11-16T18:23:46.098Z,13.63
2022-11-16T18:26:38.745Z,17.27
2022-11-16T18:29:59.177Z,10.57
2022-11-16T18:33:38.623Z,12.45
2022-11-16T18:44:56.468Z,11.65
2022-11-16T18:52:22.046Z,25.13
2022-11-16T18:58:58.753Z,8.63
2022-11-16T19:02:34.899Z,8.73
2022-11-16T19:38:09.536Z,8.55
2022-11-16T19:40:39.755Z,10.45
2022-11-16T19:44:26.055Z,9.30
2022-11-16T19:46:57.518Z,5.90
2022-11-16T19:49:27.390Z,7.32
2022-11-16T19:51:58.990Z,9.15
2022-11-16T19:54:31.482Z,10.10
2022-11-16T19:57:22.469Z,9.10
2022-11-16T19:59:52.853Z,10.88
2022-11-16T20:02:37.062Z,8.40
2022-11-16T20:05:08.168Z,7.82
2022-11-16T20:07:42.102Z,7.30
2022-11-16T20:10:22.565Z,8.32
2022-11-16T20:12:57.031Z,9.15
2022-11-16T20:15:31.589Z,10.13
2022-11-16T20:18:06.664Z,8.05
2022-11-16T20:20:36.331Z,7.03
2022-11-16T20:23:05.901Z,9.68
2022-11-16T20:25:41.594Z,9.05
2022-11-16T20:28:11.637Z,7.43
2022-11-16T20:30:41.216Z,12.05
2022-11-16T20:33:17.811Z,9.40
2022-11-16T20:35:51.074Z,7.38
2022-11-16T20:38:21.377Z,8.45
2022-11-16T20:40:52.473Z,9.25
2022-11-16T20:43:22.465Z,11.18
2022-11-16T20:45:55.785Z,9.95
2022-11-16T20:48:25.746Z,19.20
2022-11-16T20:50:55.878Z,19.38
2022-11-16T20:53:31.957Z,14.32
2022-11-16T20:56:04.276Z,13.35
2022-11-16T20:58:34.833Z,10.52
2022-11-16T21:01:07.653Z,9.13
2022-11-16T21:03:39.450Z,12.80
2022-11-16T21:06:12.607Z,17.35
2022-11-16T21:08:45.396Z,10.38
2022-11-16T21:11:19.086Z,9.57
2022-11-16T21:14:07.962Z,9.82
2022-11-16T21:16:38.026Z,8.32
2022-11-16T21:19:12.892Z,11.90
2022-11-16T21:22:09.588Z,9.48
2022-11-16T21:25:05.025Z,9.15
2022-11-16T21:27:36.074Z,8.60
2022-11-16T21:30:07.690Z,10.15
2022-11-16T21:32:41.559Z,8.45
2022-11-16T21:35:18.115Z,8.57
2022-11-16T21:38:33.845Z,7.88
2022-11-16T21:41:18.227Z,7.75
2022-11-16T21:43:49.433Z,10.50
2022-11-16T21:46:28.177Z,10.15
2022-11-16T21:49:04.264Z,9.30
2022-11-16T21:51:33.632Z,14.23
2022-11-16T21:54:10.590Z,9.35
2022-11-16T21:56:48.717Z,9.70
2022-11-16T21:59:25.916Z,11.02
2022-11-16T22:02:27.763Z,10.77
2022-11-16T22:05:26.422Z,11.13
2022-11-16T22:07:56.869Z,9.00
2022-11-16T22:10:29.040Z,10.85
2022-11-16T22:12:58.620Z,8.52
2022-11-16T22:15:35.088Z,8.48
2022-11-16T22:18:13.356Z,8.43
2022-11-16T22:20:43.354Z,7.47
2022-11-16T22:23:12.811Z,10.55
2022-11-16T22:25:45.283Z,13.40
2022-11-16T22:28:21.664Z,9.50
2022-11-16T22:31:01.157Z,8.13
2022-11-16T22:33:32.728Z,9.10
2022-11-16T22:36:02.866Z,9.20
2022-11-16T22:38:32.495Z,11.23
2022-11-16T22:41:06.419Z,10.57
2022-11-16T22:43:37.766Z,8.10
2022-11-16T22:46:09.381Z,13.40
2022-11-16T22:48:56.058Z,10.68
2022-11-16T22:51:27.753Z,8.57
2022-11-16T22:53:59.407Z,12.07
2022-11-16T22:56:31.149Z,11.27
2022-11-16T22:59:02.927Z,10.90
2022-11-16T23:01:43.285Z,10.38
2022-11-16T23:04:18.630Z,13.95
2022-11-16T23:06:49.683Z,10.10
2022-11-16T23:09:32.011Z,10.43
2022-11-16T23:12:18.809Z,8.77
2022-11-16T23:15:06.229Z,10.30
2022-11-16T23:17:46.624Z,15.23
2022-11-16T23:20:35.829Z,10.30
2022-11-16T23:23:37.534Z,12.07
2022-11-16T23:26:32.150Z,11.40
2022-11-16T23:29:04.659Z,12.07
2022-11-16T23:31:34.339Z,15.32
2022-11-16T23:34:07.392Z,9.27
2022-11-16T23:36:36.877Z,9.05
2022-11-16T23:39:06.267Z,10.27
2022-11-16T23:41:53.120Z,14.90
2022-11-16T23:44:23.127Z,10.15
2022-11-16T23:46:56.405Z,10.35
2022-11-16T23:49:27.315Z,7.30
2022-11-16T23:51:57.482Z,10.43
2022-11-16T23:54:27.073Z,9.30
2022-11-16T23:56:56.354Z,11.07
2022-11-16T23:59:25.689Z,10.10
